Ain el Beida Airport


Codes: DAUU/OGX
Name: Ain el Beida Airport
City: Ouargla
Country: Algeria
Elevation: 492 ft.
Wikipedia:

Photos at Ain el Beida Airport


   Photos courtesy of SpottingLog. You can add your own sightings and photos by signing up for a free trial today.



No photos found.

Weather at Ain el Beida Airport


Time (UTC)DescriptionTempratureWindCloud coverageVisibilityPressureHumidity
16-Jun-2024 03:00Broken Clouds32°C18 mph, N72%10000m1012hPa20%
16-Jun-2024 06:00Broken Clouds31°C18 mph, N75%10000m1013hPa26%
16-Jun-2024 09:00Overcast Clouds34°C16 mph, NE88%10000m1013hPa23%
16-Jun-2024 12:00Broken Clouds40°C13 mph, E72%10000m1011hPa14%
16-Jun-2024 15:00Scattered Clouds42°C11 mph, E27%10000m1009hPa10%
16-Jun-2024 18:00Scattered Clouds40°C9 mph, E36%10000m1008hPa11%
16-Jun-2024 21:00Overcast Clouds36°C9 mph, E100%10000m1010hPa13%
17-Jun-2024 00:00Overcast Clouds35°C11 mph, E100%10000m1011hPa14%
17-Jun-2024 03:00Overcast Clouds32°C13 mph, NE100%10000m1011hPa22%
17-Jun-2024 06:00Overcast Clouds31°C11 mph, E99%10000m1012hPa22%
17-Jun-2024 09:00Overcast Clouds39°C16 mph, SE90%10000m1012hPa13%
17-Jun-2024 12:00Broken Clouds43°C9 mph, SE84%10000m1011hPa10%
17-Jun-2024 15:00Broken Clouds44°C4 mph, SE80%10000m1009hPa9%
17-Jun-2024 18:00Scattered Clouds42°C4 mph, E47%10000m1008hPa10%
17-Jun-2024 21:00Scattered Clouds37°C13 mph, E35%10000m1011hPa14%
18-Jun-2024 00:00Few Clouds36°C16 mph, E21%10000m1011hPa16%
18-Jun-2024 03:00Broken Clouds35°C16 mph, SE55%10000m1010hPa16%
18-Jun-2024 06:00Broken Clouds34°C9 mph, SE77%10000m1012hPa16%
18-Jun-2024 09:00Scattered Clouds39°C4 mph, E40%10000m1013hPa11%
18-Jun-2024 12:00Few Clouds44°C7 mph, SE21%10000m1012hPa8%
18-Jun-2024 15:00Clear Sky46°C11 mph, E1%10000m1010hPa7%
18-Jun-2024 18:00Clear Sky44°C11 mph, E1%10000m1010hPa8%
18-Jun-2024 21:00Clear Sky39°C13 mph, E0%10000m1011hPa11%
19-Jun-2024 00:00Clear Sky37°C13 mph, E0%10000m1011hPa13%
19-Jun-2024 03:00Clear Sky35°C18 mph, SE0%10000m1010hPa13%
19-Jun-2024 06:00Clear Sky35°C16 mph, SE0%10000m1012hPa13%
19-Jun-2024 09:00Clear Sky42°C18 mph, SE1%10000m1012hPa8%
19-Jun-2024 12:00Clear Sky46°C13 mph, SE1%10000m1012hPa8%
19-Jun-2024 15:00Clear Sky46°C16 mph, E0%10000m1010hPa7%
19-Jun-2024 18:00Clear Sky43°C18 mph, E0%10000m1010hPa8%
19-Jun-2024 21:00Clear Sky39°C18 mph, E0%10000m1012hPa12%
20-Jun-2024 00:00Clear Sky36°C18 mph, SE0%10000m1012hPa13%
20-Jun-2024 03:00Clear Sky32°C13 mph, E0%10000m1012hPa15%
20-Jun-2024 06:00Clear Sky31°C13 mph, E0%10000m1013hPa16%
20-Jun-2024 09:00Clear Sky38°C16 mph, E0%10000m1013hPa13%
20-Jun-2024 12:00Clear Sky43°C16 mph, E0%10000m1012hPa8%
20-Jun-2024 15:00Clear Sky43°C18 mph, E0%10000m1010hPa6%
20-Jun-2024 18:00Clear Sky41°C13 mph, E0%10000m1010hPa8%
20-Jun-2024 21:00Clear Sky36°C11 mph, E0%10000m1011hPa11%
21-Jun-2024 00:00Clear Sky33°C11 mph, E0%10000m1012hPa13%